Lyon Station, PA (19536)

12:37 AM EST en Noviembre 23, 2014 (GMT -0500)
Richmond Twp/Fleetwood Boro | Change Station
CLOSE
Current Station
Estación meteorológica personal
Location: Fleetwood, PA
Altura: 381 ft
Estaciones meteorológicas cercanas

Alt 381 ft 40.46 °N, 75.84 °W | Updated 14 minutes ago

Muy nublado
Muy nublado
32.7 ° F
Sensación térmica 33 ° F
N
1.6
Viento Variable Viento desde NNE

Hoy
Alta -- | Baja -- ° F
--% Posibilidad de precipitaciones
Ayer
Alta -- | Baja -- ° F
Precip. -- pul
6:58 AM 4:40 PM
Luna nueva, 1% visible
Presión 30.24 pul
Visibilidad 10.0 Millas
Nubes Nubes dispersas 11000 ft
Vientos helados 33 ° F
Punto de rocío 24 ° F
Humedad 71%
Precipitaciones 0.00 pul
Espesor de la nieve No disponible.
UV 0 de una escala de 12
Polen .10 de una escala de 12
Calidad del aire No disponible.
Flu Activity No disponible.
METAR KRDG 230454Z AUTO 16003KT 10SM SCT110 05/M07 A3021 RMK AO2 SLP238 T00501067 400611078

More Conditions Fewer Conditions

Presión 30.24 pul
Visibilidad 10.0 Millas
Nubes Nubes dispersas 11000 ft
Vientos helados 33 ° F
Punto de rocío 24 ° F
Humedad 71%
Precipitaciones 0.00 pul
Espesor de la nieve No disponible.
UV 0 de una escala de 12
Polen .10 de una escala de 12
Calidad del aire No disponible.
Flu Activity No disponible.
METAR KRDG 230454Z AUTO 16003KT 10SM SCT110 05/M07 A3021 RMK AO2 SLP238 T00501067 400611078

More Conditions Fewer Conditions

10-Day Weather Forecast

Almanac

Astronomía

Nov. 23, 2014 Salida Puesta
Hora real
Crepúsculo civil
Crepúsculo náutico
Crepúsculo astronómico
Luna
Horas de luz
Horas de luz
Tomorrow will be .
, % of the Moon is Illuminated

Extremos de hoy

Máximos del estado Bajos del estado

Community

WunderPhotos

Upload Photos

1,773,016 ¡fotos cargadas!

WunderBlogs® & News

Nearby

Calidad del aire

  Calidad del aire Índice AQ Contaminante
Not available.

Grosos de nieve

Estación Profundido Altura

Actividad de terremotos

Ciudad Distance Mag. Tiempo y dato
Magnitud mínima muestra es 2,5.

Temperaturas de aguas costeras

Lugar Temperatura

Estaciones meteorológicas cercanas